createdAt,value
2017-11-03T00:00:14.476Z,98162.20
2017-11-03T00:02:41.969Z,98149.45
2017-11-03T00:05:09.473Z,98147.45
2017-11-03T00:07:36.966Z,98138.95
2017-11-03T00:10:05.909Z,98137.17
2017-11-03T00:12:50.482Z,98135.97
2017-11-03T00:15:28.715Z,98138.56
2017-11-03T00:18:03.002Z,98138.88
2017-11-03T00:20:30.626Z,98141.50
2017-11-03T00:22:58.142Z,98148.75
2017-11-03T00:25:25.879Z,98147.48
2017-11-03T00:28:00.854Z,98151.19
2017-11-03T00:30:28.378Z,98147.49
2017-11-03T00:32:55.874Z,98149.41
2017-11-03T00:35:23.363Z,98145.12
2017-11-03T00:37:50.891Z,98150.27
2017-11-03T00:40:18.393Z,98153.13
2017-11-03T00:42:45.885Z,98157.77
2017-11-03T00:45:13.401Z,98161.12
2017-11-03T00:47:44.552Z,98156.83
2017-11-03T00:50:12.164Z,98152.53
2017-11-03T00:52:39.802Z,98158.97
2017-11-03T00:55:07.363Z,98160.12
2017-11-03T00:57:34.878Z,98156.64
2017-11-03T01:00:02.374Z,98158.05
2017-11-03T01:02:29.892Z,98168.81
2017-11-03T01:04:57.391Z,98159.51
2017-11-03T01:07:24.886Z,98165.25
2017-11-03T01:09:52.382Z,98164.13
2017-11-03T01:12:19.906Z,98160.50
2017-11-03T01:14:47.415Z,98164.83
2017-11-03T01:17:14.918Z,98160.69
2017-11-03T01:19:42.437Z,98159.42
2017-11-03T01:22:09.936Z,98154.23
2017-11-03T01:24:37.431Z,98161.66
2017-11-03T01:27:05.009Z,98159.42
2017-11-03T01:29:32.498Z,98160.18
2017-11-03T01:32:00.018Z,98163.20
2017-11-03T01:34:27.546Z,98164.50
2017-11-03T01:36:55.043Z,98161.92
2017-11-03T01:39:22.529Z,98168.06
2017-11-03T01:41:50.019Z,98165.82
2017-11-03T01:44:17.528Z,98165.66
2017-11-03T01:46:45.025Z,98167.36
2017-11-03T01:49:12.530Z,98163.77
2017-11-03T01:51:40.032Z,98157.05
2017-11-03T01:54:07.564Z,98159.31
2017-11-03T01:56:35.070Z,98161.31
2017-11-03T01:59:02.559Z,98162.58
2017-11-03T02:01:30.067Z,98150.03
2017-11-03T02:03:57.551Z,98159.26
2017-11-03T02:06:25.042Z,98155.37
2017-11-03T02:08:52.525Z,98152.05
2017-11-03T02:11:20.006Z,98151.10
2017-11-03T02:13:47.502Z,98147.84
2017-11-03T02:16:14.997Z,98145.69
2017-11-03T02:18:42.482Z,98139.39
2017-11-03T02:21:10.153Z,98140.06
2017-11-03T02:23:37.651Z,98135.84
2017-11-03T02:26:05.175Z,98136.77
2017-11-03T02:28:32.670Z,98147.77
2017-11-03T02:31:00.179Z,98144.47
2017-11-03T02:33:27.671Z,98147.53
2017-11-03T02:35:55.173Z,98145.00
2017-11-03T02:38:22.677Z,98136.61
2017-11-03T02:40:50.239Z,98141.18
2017-11-03T02:43:17.737Z,98138.19
2017-11-03T02:45:45.286Z,98136.05
2017-11-03T02:48:12.782Z,98137.67
2017-11-03T02:50:40.284Z,98147.98
2017-11-03T02:53:07.788Z,98146.00
2017-11-03T02:55:35.282Z,98147.17
2017-11-03T02:58:02.785Z,98148.17
2017-11-03T03:00:30.283Z,98146.08
2017-11-03T03:02:57.786Z,98150.09
2017-11-03T03:05:25.286Z,98144.89
2017-11-03T03:07:52.782Z,98145.02
2017-11-03T03:10:20.278Z,98156.18
2017-11-03T03:12:47.778Z,98151.09
2017-11-03T03:15:15.289Z,98155.66
2017-11-03T03:17:42.792Z,98152.12
2017-11-03T03:20:10.301Z,98161.03
2017-11-03T03:22:37.794Z,98162.91
2017-11-03T03:25:05.301Z,98161.64
2017-11-03T03:27:32.810Z,98165.17
2017-11-03T03:30:00.315Z,98162.09
2017-11-03T03:32:27.824Z,98164.12
2017-11-03T03:34:56.685Z,98165.27
2017-11-03T03:37:24.183Z,98159.83
2017-11-03T03:39:51.707Z,98166.94
2017-11-03T03:42:19.201Z,98158.88
2017-11-03T03:44:46.698Z,98159.38
2017-11-03T03:47:14.203Z,98165.87
2017-11-03T03:49:41.783Z,98159.45
2017-11-03T03:52:09.294Z,98154.55
2017-11-03T03:54:36.802Z,98161.46
2017-11-03T03:57:04.297Z,98159.64
2017-11-03T03:59:31.794Z,98154.74
2017-11-03T04:01:59.311Z,98158.64
2017-11-03T04:04:26.892Z,98160.72
2017-11-03T04:06:54.410Z,98153.72
2017-11-03T04:09:21.901Z,98158.34
2017-11-03T04:11:49.409Z,98161.44
2017-11-03T04:14:16.899Z,98160.88
2017-11-03T04:16:44.413Z,98155.92
2017-11-03T04:19:11.913Z,98152.21
2017-11-03T04:21:39.406Z,98153.89
2017-11-03T04:24:06.914Z,98152.78
2017-11-03T04:26:34.405Z,98157.16
2017-11-03T04:29:01.915Z,98156.09
2017-11-03T04:31:29.412Z,98150.38
2017-11-03T04:33:56.909Z,98144.72
2017-11-03T04:36:24.403Z,98144.09
2017-11-03T04:38:51.896Z,98151.42
2017-11-03T04:41:19.774Z,98149.02
2017-11-03T04:43:47.282Z,98151.09
2017-11-03T04:46:14.789Z,98152.33
2017-11-03T04:48:42.307Z,98152.44
2017-11-03T04:51:09.828Z,98154.14
2017-11-03T04:53:37.320Z,98152.42
2017-11-03T04:56:04.830Z,98148.56
2017-11-03T04:58:32.326Z,98153.61
2017-11-03T05:00:59.846Z,98152.76
2017-11-03T05:03:27.346Z,98148.91
2017-11-03T05:05:54.846Z,98150.16
2017-11-03T05:08:22.358Z,98147.52
2017-11-03T05:10:49.852Z,98146.50
2017-11-03T05:13:17.361Z,98150.96
2017-11-03T05:15:44.906Z,98155.00
2017-11-03T05:18:12.415Z,98148.66
2017-11-03T05:20:39.918Z,98149.06
2017-11-03T05:23:07.429Z,98146.96
2017-11-03T05:25:34.928Z,98150.62
2017-11-03T05:28:02.471Z,98143.55
2017-11-03T05:30:29.976Z,98144.45
2017-11-03T05:32:57.513Z,98147.84
2017-11-03T05:35:25.017Z,98143.19
2017-11-03T05:37:52.497Z,98146.32
2017-11-03T05:40:19.998Z,98145.78
2017-11-03T05:42:47.506Z,98147.14
2017-11-03T05:45:15.031Z,98155.34
2017-11-03T05:47:42.535Z,98158.16
2017-11-03T05:50:10.046Z,98163.59
2017-11-03T05:52:37.541Z,98158.98
2017-11-03T05:55:05.050Z,98160.30
2017-11-03T05:57:32.555Z,98158.37
2017-11-03T06:00:00.045Z,98154.59
2017-11-03T06:02:27.555Z,98155.19
2017-11-03T06:04:55.070Z,98156.25
2017-11-03T06:07:22.620Z,98156.73
2017-11-03T06:09:50.107Z,98152.02
2017-11-03T06:12:17.614Z,98154.31
2017-11-03T06:14:45.103Z,98163.61
2017-11-03T06:17:12.623Z,98168.70
2017-11-03T06:19:40.129Z,98166.59
2017-11-03T06:22:07.646Z,98168.70
2017-11-03T06:24:35.146Z,98175.41
2017-11-03T06:27:02.626Z,98169.69
2017-11-03T06:29:31.042Z,98166.74
2017-11-03T06:31:58.553Z,98165.92
2017-11-03T06:34:26.047Z,98165.88
2017-11-03T06:36:53.538Z,98174.80
2017-11-03T06:39:21.087Z,98175.08
2017-11-03T06:41:48.590Z,98172.41
2017-11-03T06:44:16.080Z,98167.94
2017-11-03T06:46:43.593Z,98177.44
2017-11-03T06:49:11.100Z,98176.97
2017-11-03T06:51:38.611Z,98178.80
2017-11-03T06:54:06.125Z,98185.19
2017-11-03T06:56:33.660Z,98179.28
2017-11-03T06:59:01.174Z,98180.57
2017-11-03T07:01:28.689Z,98178.81
2017-11-03T07:03:56.231Z,98181.75
2017-11-03T07:06:23.729Z,98179.98
2017-11-03T07:08:51.230Z,98175.46
2017-11-03T07:11:18.723Z,98189.00
2017-11-03T07:13:46.229Z,98187.83
2017-11-03T07:16:13.754Z,98184.41
2017-11-03T07:18:41.258Z,98185.97
2017-11-03T07:21:08.785Z,98190.70
2017-11-03T07:23:36.286Z,98185.45
2017-11-03T07:26:03.794Z,98185.91
2017-11-03T07:28:31.342Z,98180.98
2017-11-03T07:30:58.850Z,98185.59
2017-11-03T07:33:26.359Z,98187.72
2017-11-03T07:35:53.864Z,98197.30
2017-11-03T07:38:21.406Z,98198.66
2017-11-03T07:40:48.926Z,98202.05
2017-11-03T07:43:16.423Z,98195.16
2017-11-03T07:45:43.951Z,98202.48
2017-11-03T07:48:11.452Z,98199.70
2017-11-03T07:50:38.951Z,98192.58
2017-11-03T07:53:06.493Z,98192.77
2017-11-03T07:55:33.993Z,98181.11
2017-11-03T07:58:01.494Z,98192.91
2017-11-03T08:00:28.995Z,98197.68
2017-11-03T08:02:56.497Z,98201.30
2017-11-03T08:05:24.034Z,98191.58
2017-11-03T08:07:51.550Z,98185.36
2017-11-03T08:10:19.078Z,98201.31
2017-11-03T08:12:46.603Z,98197.13
2017-11-03T08:15:14.107Z,98188.63
2017-11-03T08:17:41.626Z,98195.52
2017-11-03T08:20:09.143Z,98188.74
2017-11-03T08:22:36.659Z,98193.36
2017-11-03T08:25:04.186Z,98198.05
2017-11-03T08:27:31.685Z,98193.45
2017-11-03T08:29:59.210Z,98190.43
2017-11-03T08:32:26.740Z,98189.29
2017-11-03T08:34:54.267Z,98191.73
2017-11-03T08:37:21.799Z,98182.23
2017-11-03T08:39:49.321Z,98180.48
2017-11-03T08:42:16.862Z,98175.47
2017-11-03T08:44:44.406Z,98182.88
2017-11-03T08:47:11.923Z,98176.61
2017-11-03T08:49:39.470Z,98177.52
2017-11-03T08:52:06.994Z,98179.55
2017-11-03T08:54:34.779Z,98174.91
2017-11-03T08:57:02.302Z,98177.41
2017-11-03T08:59:29.871Z,98179.89
2017-11-03T09:01:57.361Z,98173.58
2017-11-03T09:04:26.371Z,98178.95
2017-11-03T09:06:53.900Z,98169.44
2017-11-03T09:09:21.512Z,98180.92
2017-11-03T09:11:49.026Z,98170.23
2017-11-03T09:14:16.529Z,98171.55
2017-11-03T09:16:44.042Z,98175.12
2017-11-03T09:19:11.552Z,98165.98
2017-11-03T09:21:39.093Z,98172.12
2017-11-03T09:24:06.612Z,98179.55
2017-11-03T09:26:34.147Z,98176.09
2017-11-03T09:29:01.661Z,98174.47
2017-11-03T09:31:29.187Z,98175.31
2017-11-03T09:33:56.696Z,98174.63
2017-11-03T09:36:24.201Z,98172.81
2017-11-03T09:38:51.703Z,98178.61
2017-11-03T09:41:19.223Z,98174.04
2017-11-03T09:43:46.735Z,98175.02
2017-11-03T09:46:14.253Z,98172.34
2017-11-03T09:48:41.771Z,98166.95
2017-11-03T09:51:09.278Z,98162.95
2017-11-03T09:53:36.804Z,98158.28
2017-11-03T09:56:04.423Z,98162.00
2017-11-03T09:58:31.934Z,98160.25
2017-11-03T10:01:00.284Z,98156.84
2017-11-03T10:03:27.812Z,98166.03
2017-11-03T10:05:55.326Z,98158.18
2017-11-03T10:08:22.832Z,98160.00
2017-11-03T10:10:50.368Z,98152.49
2017-11-03T10:13:17.879Z,98151.05
2017-11-03T10:15:45.447Z,98152.97
2017-11-03T10:18:12.958Z,98157.45
2017-11-03T10:20:40.473Z,98150.03
2017-11-03T10:23:07.986Z,98147.45
2017-11-03T10:25:35.502Z,98150.64
2017-11-03T10:28:03.002Z,98146.45
2017-11-03T10:30:30.503Z,98142.98
2017-11-03T10:32:58.033Z,98134.96
2017-11-03T10:35:25.562Z,98137.53
2017-11-03T10:37:53.073Z,98133.45
2017-11-03T10:40:20.574Z,98130.14
2017-11-03T10:42:48.085Z,98134.13
2017-11-03T10:45:15.621Z,98125.09
2017-11-03T10:47:43.155Z,98121.14
2017-11-03T10:50:10.706Z,98114.01
2017-11-03T10:52:38.433Z,98107.54
2017-11-03T10:55:05.969Z,98096.66
2017-11-03T10:57:33.509Z,98098.44
2017-11-03T11:00:01.042Z,98099.46
2017-11-03T11:02:28.656Z,98106.44
2017-11-03T11:04:56.167Z,98103.34
2017-11-03T11:07:23.698Z,98100.62
2017-11-03T11:09:51.225Z,98090.88
2017-11-03T11:12:18.743Z,98093.97
2017-11-03T11:14:46.344Z,98091.22
2017-11-03T11:17:13.868Z,98084.09
2017-11-03T11:19:41.403Z,98080.58
2017-11-03T11:22:08.902Z,98081.83
2017-11-03T11:24:36.426Z,98077.63
2017-11-03T11:27:03.937Z,98074.87
2017-11-03T11:29:31.453Z,98073.77
2017-11-03T11:31:58.990Z,98072.34
2017-11-03T11:34:26.500Z,98071.92
2017-11-03T11:36:54.049Z,98068.09
2017-11-03T11:39:21.550Z,98067.44
2017-11-03T11:41:49.084Z,98059.90
2017-11-03T11:44:16.597Z,98060.65
2017-11-03T11:46:44.160Z,98060.91
2017-11-03T11:49:12.655Z,98057.59
2017-11-03T11:51:40.181Z,98054.16
2017-11-03T11:54:07.682Z,98059.84
2017-11-03T11:56:35.182Z,98057.87
2017-11-03T11:59:02.694Z,98061.73
2017-11-03T12:01:30.209Z,98052.67
2017-11-03T12:03:57.726Z,98051.67
2017-11-03T12:06:25.247Z,98048.64
2017-11-03T12:08:52.759Z,98044.11
2017-11-03T12:11:20.298Z,98043.31
2017-11-03T12:13:47.844Z,98038.43
2017-11-03T12:16:15.362Z,98048.02
2017-11-03T12:18:42.897Z,98039.88
2017-11-03T12:21:10.398Z,98039.88
2017-11-03T12:23:37.924Z,98043.52
2017-11-03T12:26:05.473Z,98036.77
2017-11-03T12:28:32.987Z,98029.95
2017-11-03T12:31:00.524Z,98030.56
2017-11-03T12:33:28.055Z,98030.88
2017-11-03T12:35:55.773Z,98037.25
2017-11-03T12:38:23.298Z,98036.92
2017-11-03T12:40:55.678Z,98029.14
2017-11-03T12:43:23.251Z,98026.37
2017-11-03T12:45:50.759Z,98027.17
2017-11-03T12:48:18.265Z,98017.63
2017-11-03T12:50:45.825Z,98018.27
2017-11-03T12:53:13.342Z,98014.90
2017-11-03T12:55:40.850Z,98007.60
2017-11-03T12:58:08.373Z,98011.17
2017-11-03T13:00:35.923Z,98009.41
2017-11-03T13:03:03.473Z,98002.87
2017-11-03T13:05:31.022Z,98003.75
2017-11-03T13:07:58.558Z,97999.58
2017-11-03T13:10:26.090Z,98001.73
2017-11-03T13:12:53.680Z,97996.32
2017-11-03T13:15:21.195Z,97995.75
2017-11-03T13:17:48.735Z,97998.44
2017-11-03T13:20:16.260Z,97992.69
2017-11-03T13:22:43.790Z,97992.58
2017-11-03T13:25:11.326Z,97991.55
2017-11-03T13:27:38.869Z,97983.30
2017-11-03T13:30:06.372Z,97982.12
2017-11-03T13:32:33.911Z,97978.93
2017-11-03T13:35:01.454Z,97979.09
2017-11-03T13:37:28.970Z,97974.35
2017-11-03T13:39:57.574Z,97974.05
2017-11-03T13:42:25.202Z,97981.41
2017-11-03T13:44:52.858Z,97969.92
2017-11-03T13:47:20.375Z,97966.70
2017-11-03T13:49:47.887Z,97981.84
2017-11-03T13:52:15.489Z,97966.34
2017-11-03T13:54:43.016Z,97962.73
2017-11-03T13:57:10.551Z,97966.30
2017-11-03T13:59:38.051Z,97965.40
2017-11-03T14:02:05.557Z,97968.05
2017-11-03T14:04:33.069Z,97969.50
2017-11-03T14:07:00.684Z,97963.19
2017-11-03T14:09:28.215Z,97961.19
2017-11-03T14:11:55.802Z,97961.76
2017-11-03T14:14:23.322Z,97961.72
2017-11-03T14:16:50.882Z,97959.92
2017-11-03T14:19:18.414Z,97959.50
2017-11-03T14:21:45.972Z,97953.35
2017-11-03T14:24:13.518Z,97938.70
2017-11-03T14:26:41.039Z,97936.43
2017-11-03T14:29:08.552Z,97931.56
2017-11-03T14:31:36.060Z,97938.55
2017-11-03T14:34:03.564Z,97940.73
2017-11-03T14:36:31.071Z,97930.70
2017-11-03T14:38:58.589Z,97922.12
2017-11-03T14:41:26.118Z,97924.20
2017-11-03T14:43:53.624Z,97916.28
2017-11-03T14:46:21.117Z,97919.61
2017-11-03T14:48:48.621Z,97920.84
2017-11-03T14:51:16.168Z,97916.73
2017-11-03T14:53:43.675Z,97915.83
2017-11-03T14:56:11.173Z,97916.73
2017-11-03T14:58:38.702Z,97921.03
2017-11-03T15:01:06.246Z,97921.34
2017-11-03T15:03:33.751Z,97922.65
2017-11-03T15:06:01.267Z,97916.02
2017-11-03T15:08:28.774Z,97919.05
2017-11-03T15:10:56.287Z,97916.41
2017-11-03T15:13:23.820Z,97915.31
2017-11-03T15:15:51.364Z,97914.06
2017-11-03T15:18:18.875Z,97914.28
2017-11-03T15:20:46.385Z,97918.39
2017-11-03T15:23:13.918Z,97916.61
2017-11-03T15:25:41.463Z,97915.36
2017-11-03T15:28:08.971Z,97916.62
2017-11-03T15:30:36.604Z,97898.52
2017-11-03T15:33:04.108Z,97904.39
2017-11-03T15:35:31.613Z,97906.76
2017-11-03T15:37:59.113Z,97909.14
2017-11-03T15:40:26.618Z,97906.02
2017-11-03T15:42:54.226Z,97896.50
2017-11-03T15:45:21.734Z,97904.84
2017-11-03T15:47:49.228Z,97903.88
2017-11-03T15:50:16.735Z,97900.28
2017-11-03T15:52:44.242Z,97900.49
2017-11-03T15:55:11.758Z,97901.07
2017-11-03T15:57:39.286Z,97893.12
2017-11-03T16:00:06.791Z,97896.68
2017-11-03T16:02:34.315Z,97892.42
2017-11-03T16:05:01.869Z,97893.15
2017-11-03T16:07:29.477Z,97886.12
2017-11-03T16:09:57.048Z,97893.66
2017-11-03T16:12:24.570Z,97899.45
2017-11-03T16:14:52.089Z,97898.69
2017-11-03T16:17:19.633Z,97900.17
2017-11-03T16:19:47.152Z,97897.17
2017-11-03T16:22:14.717Z,97893.78
2017-11-03T16:24:42.331Z,97892.55
2017-11-03T16:27:09.845Z,97895.12
2017-11-03T16:29:37.350Z,97900.69
2017-11-03T16:32:04.858Z,97897.46
2017-11-03T16:34:32.410Z,97899.45
2017-11-03T16:37:00.033Z,97897.84
2017-11-03T16:39:27.567Z,97900.19
2017-11-03T16:41:55.066Z,97903.31
2017-11-03T16:44:22.589Z,97904.78
2017-11-03T16:46:50.110Z,97903.56
2017-11-03T16:49:17.616Z,97904.31
2017-11-03T16:51:45.138Z,97906.69
2017-11-03T16:54:12.658Z,97906.95
2017-11-03T16:56:40.155Z,97904.66
2017-11-03T16:59:07.666Z,97900.47
2017-11-03T17:01:35.193Z,97906.84
2017-11-03T17:04:02.722Z,97899.81
2017-11-03T17:06:30.234Z,97909.54
2017-11-03T17:08:57.766Z,97908.69
2017-11-03T17:11:25.313Z,97908.61
2017-11-03T17:13:53.075Z,97911.47
2017-11-03T17:16:20.705Z,97909.75
2017-11-03T17:18:48.334Z,97904.25
2017-11-03T17:21:15.863Z,97901.18
2017-11-03T17:23:43.370Z,97903.33
2017-11-03T17:26:10.885Z,97902.39
2017-11-03T17:28:38.398Z,97902.63
2017-11-03T17:31:05.973Z,97896.42
2017-11-03T17:33:33.549Z,97894.98
2017-11-03T17:36:01.050Z,97897.56
2017-11-03T17:38:28.600Z,97895.82
2017-11-03T17:40:56.125Z,97890.14
2017-11-03T17:43:23.981Z,97897.06
2017-11-03T17:45:51.502Z,97893.62
2017-11-03T17:48:19.008Z,97888.90
2017-11-03T17:50:46.557Z,97888.53
2017-11-03T17:53:14.091Z,97891.05
2017-11-03T17:55:41.607Z,97890.43
2017-11-03T17:58:09.140Z,97893.23
2017-11-03T18:00:36.662Z,97884.02
2017-11-03T18:03:04.208Z,97884.89
2017-11-03T18:05:31.727Z,97882.12
2017-11-03T18:07:59.279Z,97879.72
2017-11-03T18:10:26.832Z,97879.72
2017-11-03T18:12:54.380Z,97880.49
2017-11-03T18:15:22.081Z,97875.91
2017-11-03T18:17:49.614Z,97874.09
2017-11-03T18:20:17.114Z,97874.59
2017-11-03T18:22:44.636Z,97868.45
2017-11-03T18:25:12.137Z,97870.54
2017-11-03T18:27:39.653Z,97870.82
2017-11-03T18:30:07.171Z,97879.80
2017-11-03T18:32:34.686Z,97875.80
2017-11-03T18:35:02.191Z,97880.91
2017-11-03T18:37:29.759Z,97874.19
2017-11-03T18:39:57.275Z,97870.31
2017-11-03T18:42:24.799Z,97872.72
2017-11-03T18:44:52.326Z,97875.83
2017-11-03T18:47:21.010Z,97879.16
2017-11-03T18:49:48.615Z,97876.50
2017-11-03T18:52:16.173Z,97883.85
2017-11-03T18:54:43.701Z,97874.87
2017-11-03T18:57:11.702Z,97881.42
2017-11-03T18:59:39.438Z,97875.68
2017-11-03T19:02:17.803Z,97875.13
2017-11-03T19:04:45.343Z,97875.16
2017-11-03T19:07:12.890Z,97864.70
2017-11-03T19:09:40.417Z,97868.83
2017-11-03T19:12:07.927Z,97861.74
2017-11-03T19:14:35.433Z,97865.75
2017-11-03T19:17:03.028Z,97862.40
2017-11-03T19:19:30.549Z,97860.69
2017-11-03T19:21:58.077Z,97857.73
2017-11-03T19:24:25.598Z,97868.69
2017-11-03T19:26:53.120Z,97867.09
2017-11-03T19:29:20.627Z,97871.11
2017-11-03T19:31:48.166Z,97862.26
2017-11-03T19:34:15.719Z,97863.75
2017-11-03T19:36:43.220Z,97856.23
2017-11-03T19:39:10.726Z,97863.02
2017-11-03T19:41:38.309Z,97860.36
2017-11-03T19:44:05.845Z,97862.08
2017-11-03T19:46:33.377Z,97864.31
2017-11-03T19:49:00.884Z,97862.97
2017-11-03T19:51:28.402Z,97864.45
2017-11-03T19:53:55.921Z,97867.08
2017-11-03T19:56:23.413Z,97866.13
2017-11-03T19:58:50.935Z,97863.46
2017-11-03T20:01:18.459Z,97860.08
2017-11-03T20:03:45.993Z,97862.51
2017-11-03T20:06:13.642Z,97850.28
2017-11-03T20:08:41.159Z,97859.78
2017-11-03T20:11:08.690Z,97861.02
2017-11-03T20:13:36.206Z,97857.05
2017-11-03T20:16:03.742Z,97862.22
2017-11-03T20:18:31.254Z,97868.09
2017-11-03T20:20:58.766Z,97859.91
2017-11-03T20:23:26.279Z,97865.98
2017-11-03T20:25:53.804Z,97862.42
2017-11-03T20:28:21.343Z,97864.15
2017-11-03T20:30:48.850Z,97869.82
2017-11-03T20:33:16.359Z,97866.96
2017-11-03T20:35:43.894Z,97873.76
2017-11-03T20:38:11.411Z,97870.47
2017-11-03T20:40:38.930Z,97872.00
2017-11-03T20:43:06.516Z,97872.40
2017-11-03T20:45:34.038Z,97869.55
2017-11-03T20:48:01.565Z,97870.68
2017-11-03T20:50:29.109Z,97868.81
2017-11-03T20:52:56.616Z,97874.61
2017-11-03T20:55:24.152Z,97879.12
2017-11-03T20:57:51.647Z,97869.06
2017-11-03T21:00:19.176Z,97872.38
2017-11-03T21:02:46.697Z,97865.78
2017-11-03T21:05:14.220Z,97871.88
2017-11-03T21:07:41.713Z,97873.78
2017-11-03T21:10:09.243Z,97863.63
2017-11-03T21:12:36.763Z,97862.41
2017-11-03T21:15:04.284Z,97866.69
2017-11-03T21:17:31.828Z,97868.05
2017-11-03T21:19:59.403Z,97871.00
2017-11-03T21:22:26.936Z,97869.13
2017-11-03T21:24:54.492Z,97862.59
2017-11-03T21:27:22.028Z,97869.95
2017-11-03T21:29:49.565Z,97859.00
2017-11-03T21:32:17.077Z,97862.23
2017-11-03T21:34:44.640Z,97868.27
2017-11-03T21:37:12.165Z,97862.80
2017-11-03T21:39:39.801Z,97862.09
2017-11-03T21:42:07.465Z,97861.38
2017-11-03T21:44:34.995Z,97860.02
2017-11-03T21:47:02.526Z,97854.81
2017-11-03T21:49:30.068Z,97854.42
2017-11-03T21:51:57.599Z,97857.63
2017-11-03T21:54:25.137Z,97854.53
2017-11-03T21:56:52.691Z,97859.87
2017-11-03T21:59:20.211Z,97850.21
2017-11-03T22:01:47.746Z,97854.95
2017-11-03T22:04:15.274Z,97851.89
2017-11-03T22:06:42.798Z,97852.95
2017-11-03T22:09:10.320Z,97850.30
2017-11-03T22:11:37.896Z,97844.55
2017-11-03T22:14:05.415Z,97835.41
2017-11-03T22:16:32.963Z,97837.22
2017-11-03T22:19:00.479Z,97841.45
2017-11-03T22:21:28.048Z,97837.70
2017-11-03T22:23:55.557Z,97839.16
2017-11-03T22:26:23.054Z,97839.99
2017-11-03T22:28:50.602Z,97837.56
2017-11-03T22:31:18.119Z,97836.54
2017-11-03T22:33:45.629Z,97837.23
2017-11-03T22:36:13.152Z,97834.80
2017-11-03T22:38:40.679Z,97837.33
2017-11-03T22:41:08.206Z,97834.56
2017-11-03T22:43:35.718Z,97830.42
2017-11-03T22:46:03.242Z,97828.22
2017-11-03T22:48:30.759Z,97826.30
2017-11-03T22:50:58.303Z,97826.19
2017-11-03T22:53:25.816Z,97825.05
2017-11-03T22:55:53.324Z,97819.39
2017-11-03T22:58:20.822Z,97816.20
2017-11-03T23:00:48.424Z,97814.44
2017-11-03T23:03:15.935Z,97813.47
2017-11-03T23:05:43.476Z,97817.62
2017-11-03T23:08:10.994Z,97812.60
2017-11-03T23:10:38.515Z,97811.48
2017-11-03T23:13:06.119Z,97824.94
2017-11-03T23:15:33.673Z,97822.06
2017-11-03T23:18:01.180Z,97815.25
2017-11-03T23:20:28.694Z,97818.27
2017-11-03T23:22:56.202Z,97818.63
2017-11-03T23:25:23.717Z,97821.37
2017-11-03T23:27:51.243Z,97812.33
2017-11-03T23:30:18.759Z,97822.55
2017-11-03T23:32:46.266Z,97823.81
2017-11-03T23:35:13.765Z,97821.90
2017-11-03T23:37:41.308Z,97810.12
2017-11-03T23:40:08.843Z,97815.92
2017-11-03T23:42:36.423Z,97808.03
2017-11-03T23:45:03.950Z,97796.55
2017-11-03T23:47:31.462Z,97808.28
2017-11-03T23:49:58.996Z,97799.84
2017-11-03T23:52:26.510Z,97798.61
2017-11-03T23:54:54.011Z,97804.95
2017-11-03T23:57:21.511Z,97801.66
2017-11-03T23:59:49.041Z,97804.91
